Terminal Aerodrome Forecast
Issued by NWS

Home | Current Version | Previous Version | Text Only | Print | Product List | Glossary On
Versions: 1 2 3 4 5 6 7 8 9 10 11 12 13 14 15 16 17 18 19 20 21 22 23 24 25 26 27 28 29 30
000
FTUS45 KGGW 232326
TAFGDV
TAF
KGDV 232326Z 2400/2424 15008KT P6SM SCT200
     FM241800 18023G31KT P6SM SCT110
     FM242100 24026G35KT P6SM BKN080
     FM242300 30021G30KT P6SM VCTS BKN060CB=

USA.gov is the U.S. government's official web portal to all federal, state and local government web resources and services.